Time;durP1;ratioP1;P1;durP2;ratioP2;P2;SDS_P1;SDS_P2;PMS_P1;PMS_P2;Temp;Humidity;BMP_temperature;BMP_pressure;BME280_temperature;BME280_humidity;BME280_pressure;Samples;Min_cycle;Max_cycle;Signal;HPM_P1;HPM_P2
2022/10/01 00:02:07;;;;;;;;;;;16.30;98.10;;;;;;5101888;28;19958;-53
2022/10/01 00:04:34;;;;;;;;;;;16.30;98.10;;;;;;5101888;28;19912;-53
2022/10/01 00:07:03;;;;;;;;;;;16.30;98.00;;;;;;5101289;28;19926;-54
2022/10/01 00:09:30;;;;;;;;;;;16.30;98.00;;;;;;5101354;28;19915;-53
2022/10/01 00:11:58;;;;;;;;;;;16.30;98.00;;;;;;5102017;28;20016;-54
2022/10/01 00:14:25;;;;;;;;;;;16.30;98.30;;;;;;5101647;28;19912;-54
2022/10/01 00:16:50;;;;;;;;;;;16.20;98.70;;;;;;5101410;28;19908;-53
2022/10/01 00:19:16;;;;;;;;;;;16.20;98.40;;;;;;5101650;28;19919;-54
2022/10/01 00:21:41;;;;;;;;;;;16.20;98.60;;;;;;5101263;28;19915;-54
2022/10/01 00:24:11;;;;;;;;;;;16.20;98.60;;;;;;5101756;28;19915;-53
2022/10/01 00:26:37;;;;;;;;;;;16.20;98.80;;;;;;5101319;28;19970;-54
2022/10/01 00:29:05;;;;;;;;;;;16.20;98.90;;;;;;5101277;28;19935;-54
2022/10/01 00:31:31;;;;;;;;;;;16.20;98.70;;;;;;5101310;28;20358;-54
2022/10/01 00:33:57;;;;;;;;;;;16.10;98.80;;;;;;5101483;28;19912;-54
2022/10/01 00:36:23;;;;;;;;;;;16.20;98.50;;;;;;5101287;28;20346;-54
2022/10/01 00:38:49;;;;;;;;;;;16.20;98.30;;;;;;5101176;28;19908;-54
2022/10/01 00:41:15;;;;;;;;;;;16.30;98.30;;;;;;5100892;28;19931;-54
2022/10/01 00:43:42;;;;;;;;;;;16.20;98.60;;;;;;5101109;28;19908;-54
2022/10/01 00:46:12;;;;;;;;;;;16.20;98.40;;;;;;5100864;28;20434;-54
2022/10/01 00:48:43;;;;;;;;;;;16.20;98.50;;;;;;5100862;28;20307;-53
2022/10/01 00:51:09;;;;;;;;;;;16.20;98.20;;;;;;5100546;28;19912;-54
2022/10/01 00:53:36;;;;;;;;;;;16.30;98.20;;;;;;5100658;28;19946;-54
2022/10/01 00:56:02;;;;;;;;;;;16.20;98.70;;;;;;5100652;28;19912;-52
2022/10/01 00:58:28;;;;;;;;;;;16.30;98.50;;;;;;5100606;28;20284;-52
2022/10/01 01:00:55;;;;;;;;;;;16.30;98.60;;;;;;5100724;28;19915;-53
2022/10/01 01:03:21;;;;;;;;;;;16.20;98.60;;;;;;5100737;28;19947;-53
2022/10/01 01:05:49;;;;;;;;;;;16.30;98.50;;;;;;5100561;28;19993;-53
2022/10/01 01:08:14;;;;;;;;;;;16.30;98.40;;;;;;5099600;28;20318;-54
2022/10/01 01:10:58;;;;;;;;;;;16.30;98.70;;;;;;5099750;28;20211;-53
2022/10/01 01:13:38;;;;;;;;;;;16.30;98.40;;;;;;5100523;28;19909;-53
2022/10/01 01:16:24;;;;;;;;;;;16.30;98.70;;;;;;5100561;28;20245;-54
2022/10/01 01:18:55;;;;;;;;;;;16.30;98.90;;;;;;5099575;28;19908;-54
2022/10/01 01:21:26;;;;;;;;;;;16.20;98.60;;;;;;5100423;28;19961;-54
2022/10/01 01:24:04;;;;;;;;;;;16.20;98.60;;;;;;5100256;28;19908;-54
2022/10/01 01:26:35;;;;;;;;;;;16.20;98.90;;;;;;5100262;28;20328;-54
2022/10/01 01:29:03;;;;;;;;;;;16.20;98.90;;;;;;5100034;28;20405;-53
2022/10/01 01:31:32;;;;;;;;;;;16.20;98.90;;;;;;5100208;28;19915;-54
2022/10/01 01:33:59;;;;;;;;;;;16.20;98.90;;;;;;5099836;28;19931;-53
2022/10/01 01:36:28;;;;;;;;;;;16.20;98.90;;;;;;5100391;28;19913;-54
2022/10/01 01:38:59;;;;;;;;;;;16.20;98.80;;;;;;5099969;28;20259;-54
2022/10/01 01:41:28;;;;;;;;;;;16.20;98.80;;;;;;5100001;28;20280;-53
2022/10/01 01:43:55;;;;;;;;;;;16.20;98.50;;;;;;5099556;28;19916;-54
2022/10/01 01:46:22;;;;;;;;;;;16.20;98.60;;;;;;5099896;28;20321;-53
2022/10/01 01:48:49;;;;;;;;;;;16.20;98.70;;;;;;5099964;28;19951;-54
2022/10/01 01:51:42;;;;;;;;;;;16.20;98.50;;;;;;5099767;28;19930;-54
2022/10/01 01:54:07;;;;;;;;;;;16.20;98.80;;;;;;5068182;28;19908;-54
2022/10/01 01:56:34;;;;;;;;;;;16.20;99.00;;;;;;5099731;28;19915;-53
2022/10/01 01:59:00;;;;;;;;;;;16.20;98.50;;;;;;5099705;28;19916;-53
2022/10/01 02:01:39;;;;;;;;;;;16.20;98.70;;;;;;5099446;28;19947;-52
2022/10/01 02:04:06;;;;;;;;;;;16.20;98.80;;;;;;5099273;28;20389;-54
2022/10/01 02:06:41;;;;;;;;;;;16.20;98.70;;;;;;5099336;28;20020;-54
2022/10/01 02:09:22;;;;;;;;;;;16.20;98.40;;;;;;5099043;28;19974;-53
2022/10/01 02:12:06;;;;;;;;;;;16.20;98.70;;;;;;5099501;28;19907;-53
2022/10/01 02:14:37;;;;;;;;;;;16.30;98.70;;;;;;5099005;28;19912;-55
2022/10/01 02:17:12;;;;;;;;;;;16.30;99.00;;;;;;5099138;28;20260;-54
2022/10/01 02:20:08;;;;;;;;;;;16.20;98.90;;;;;;5099062;28;19920;-54
2022/10/01 02:22:41;;;;;;;;;;;16.20;98.70;;;;;;5082383;28;19929;-54
2022/10/01 02:25:07;;;;;;;;;;;16.20;98.60;;;;;;5099404;28;19912;-54
2022/10/01 02:27:39;;;;;;;;;;;16.20;98.90;;;;;;5099110;28;19912;-54
2022/10/01 02:30:06;;;;;;;;;;;16.20;98.90;;;;;;5099115;28;20458;-54
2022/10/01 02:32:33;;;;;;;;;;;16.20;98.90;;;;;;5098726;28;19915;-54
2022/10/01 02:34:59;;;;;;;;;;;16.20;98.90;;;;;;5098849;28;19912;-53
2022/10/01 02:37:26;;;;;;;;;;;16.20;98.70;;;;;;5098696;28;20071;-53
2022/10/01 02:39:53;;;;;;;;;;;16.20;98.60;;;;;;5098945;28;19908;-53
2022/10/01 02:42:20;;;;;;;;;;;16.30;98.60;;;;;;5098828;28;19915;-55
2022/10/01 02:44:48;;;;;;;;;;;16.20;98.80;;;;;;5098996;28;19919;-54
2022/10/01 02:47:19;;;;;;;;;;;16.20;98.80;;;;;;5098620;28;20315;-53
2022/10/01 02:49:46;;;;;;;;;;;16.20;98.70;;;;;;5098513;28;20287;-53
2022/10/01 02:52:32;;;;;;;;;;;16.20;98.80;;;;;;5098229;28;19916;-53
2022/10/01 02:55:07;;;;;;;;;;;16.20;99.00;;;;;;5098395;28;19913;-53
2022/10/01 02:57:33;;;;;;;;;;;16.20;98.90;;;;;;5098487;28;20317;-53
2022/10/01 03:00:00;;;;;;;;;;;16.20;98.90;;;;;;5098260;28;19909;-53
2022/10/01 03:02:26;;;;;;;;;;;16.20;98.90;;;;;;5098510;28;20360;-53
2022/10/01 03:04:56;;;;;;;;;;;16.20;98.90;;;;;;5098066;28;19917;-53
2022/10/01 03:07:22;;;;;;;;;;;16.20;99.00;;;;;;5098415;28;19947;-52
2022/10/01 03:09:48;;;;;;;;;;;16.20;99.20;;;;;;5098433;28;20322;-54
2022/10/01 03:12:15;;;;;;;;;;;16.20;99.00;;;;;;5098746;28;19908;-53
2022/10/01 03:14:42;;;;;;;;;;;16.20;98.90;;;;;;5097890;28;19919;-53
2022/10/01 03:17:08;;;;;;;;;;;16.20;99.20;;;;;;5098273;28;20311;-53
2022/10/01 03:19:34;;;;;;;;;;;16.20;99.40;;;;;;5098436;28;19947;-53
2022/10/01 03:21:59;;;;;;;;;;;16.30;99.10;;;;;;5098527;28;19915;-53
2022/10/01 03:24:25;;;;;;;;;;;16.30;99.20;;;;;;5098091;28;20293;-53
2022/10/01 03:26:50;;;;;;;;;;;16.30;99.30;;;;;;5098255;28;19915;-53
2022/10/01 03:29:16;;;;;;;;;;;16.30;99.10;;;;;;5098367;28;20283;-54
2022/10/01 03:31:42;;;;;;;;;;;16.30;98.80;;;;;;5097456;28;19908;-53
2022/10/01 03:34:07;;;;;;;;;;;16.30;99.00;;;;;;5098351;28;19973;-54
2022/10/01 03:36:33;;;;;;;;;;;16.30;99.00;;;;;;5098012;28;19908;-53
2022/10/01 03:38:58;;;;;;;;;;;16.40;99.10;;;;;;5097771;28;20322;-53
2022/10/01 03:41:24;;;;;;;;;;;16.30;99.00;;;;;;5097646;28;19908;-53
2022/10/01 03:43:50;;;;;;;;;;;16.30;98.90;;;;;;5098084;28;19917;-53
2022/10/01 03:46:16;;;;;;;;;;;16.40;98.80;;;;;;5097817;28;19908;-54
2022/10/01 03:48:42;;;;;;;;;;;16.40;99.00;;;;;;5097596;28;19908;-54
2022/10/01 03:51:07;;;;;;;;;;;16.40;99.00;;;;;;5098209;28;20000;-53
2022/10/01 03:53:33;;;;;;;;;;;16.40;99.10;;;;;;5098242;28;19915;-53
2022/10/01 03:55:59;;;;;;;;;;;16.40;99.10;;;;;;5097728;28;20010;-53
2022/10/01 03:58:25;;;;;;;;;;;16.40;99.20;;;;;;5097791;28;19908;-54
2022/10/01 04:00:51;;;;;;;;;;;16.40;99.20;;;;;;5097660;28;20279;-52
2022/10/01 04:03:17;;;;;;;;;;;16.30;99.00;;;;;;5097735;28;20016;-54
2022/10/01 04:05:43;;;;;;;;;;;16.40;99.10;;;;;;5097592;28;20018;-54
2022/10/01 04:08:09;;;;;;;;;;;16.40;99.10;;;;;;5097623;28;19908;-53
2022/10/01 04:10:34;;;;;;;;;;;16.40;99.00;;;;;;5097756;28;19916;-54
2022/10/01 04:13:00;;;;;;;;;;;16.40;98.90;;;;;;5097600;28;20286;-54
2022/10/01 04:15:26;;;;;;;;;;;16.40;98.80;;;;;;5097588;28;19913;-53
2022/10/01 04:17:52;;;;;;;;;;;16.40;98.90;;;;;;5079388;28;20370;-53
2022/10/01 04:20:18;;;;;;;;;;;16.40;98.80;;;;;;5098050;28;19930;-54
2022/10/01 04:22:44;;;;;;;;;;;16.40;98.80;;;;;;5097400;28;19974;-53
2022/10/01 04:25:10;;;;;;;;;;;16.40;99.20;;;;;;5095813;28;19912;-54
2022/10/01 04:27:36;;;;;;;;;;;16.40;99.00;;;;;;5095202;28;19923;-54
2022/10/01 04:30:03;;;;;;;;;;;16.40;99.20;;;;;;5096228;28;19912;-53
2022/10/01 04:32:28;;;;;;;;;;;16.40;99.10;;;;;;5097021;28;19908;-54
2022/10/01 04:34:54;;;;;;;;;;;16.40;98.70;;;;;;5097809;28;19912;-53
2022/10/01 04:37:20;;;;;;;;;;;16.40;98.60;;;;;;5096962;28;19956;-54
2022/10/01 04:39:46;;;;;;;;;;;16.40;98.60;;;;;;5097428;28;19942;-53
2022/10/01 04:42:12;;;;;;;;;;;16.40;98.50;;;;;;5097512;28;20255;-53
2022/10/01 04:44:38;;;;;;;;;;;16.40;98.60;;;;;;5100582;28;19930;-54
2022/10/01 04:47:03;;;;;;;;;;;16.40;98.80;;;;;;5101025;28;19908;-54
2022/10/01 04:49:30;;;;;;;;;;;16.40;98.70;;;;;;5101055;28;19908;-54
2022/10/01 04:51:56;;;;;;;;;;;16.40;98.60;;;;;;5099424;28;19919;-53
2022/10/01 04:54:22;;;;;;;;;;;16.40;98.40;;;;;;5100475;28;19920;-54
2022/10/01 04:56:47;;;;;;;;;;;16.40;98.50;;;;;;5099677;28;19954;-53
2022/10/01 04:59:13;;;;;;;;;;;16.40;98.60;;;;;;5100454;28;19912;-54
2022/10/01 05:01:40;;;;;;;;;;;16.40;99.00;;;;;;5100672;28;19912;-54
2022/10/01 05:04:07;;;;;;;;;;;16.40;99.00;;;;;;5100256;28;19961;-54
2022/10/01 05:06:33;;;;;;;;;;;16.40;99.00;;;;;;5099629;28;19942;-52
2022/10/01 05:08:58;;;;;;;;;;;16.40;98.80;;;;;;5099756;28;19916;-51
2022/10/01 05:11:24;;;;;;;;;;;16.40;98.70;;;;;;5100490;28;19909;-53
2022/10/01 05:13:50;;;;;;;;;;;16.40;98.70;;;;;;5098810;28;19965;-53
2022/10/01 05:16:15;;;;;;;;;;;16.40;99.00;;;;;;5098906;28;19923;-54
2022/10/01 05:18:41;;;;;;;;;;;16.40;98.60;;;;;;5098110;28;19935;-53
2022/10/01 05:21:07;;;;;;;;;;;16.40;98.90;;;;;;5098774;28;19912;-54
2022/10/01 05:23:32;;;;;;;;;;;16.40;98.80;;;;;;5098910;28;19915;-53
2022/10/01 05:25:59;;;;;;;;;;;16.40;99.00;;;;;;5098082;28;19963;-53
2022/10/01 05:28:26;;;;;;;;;;;16.40;99.10;;;;;;5079749;28;20010;-54
2022/10/01 05:30:52;;;;;;;;;;;16.40;99.10;;;;;;5097729;28;19995;-52
2022/10/01 05:33:18;;;;;;;;;;;16.40;98.90;;;;;;5097867;28;19947;-53
2022/10/01 05:35:43;;;;;;;;;;;16.40;99.00;;;;;;5097761;28;19912;-51
2022/10/01 05:38:09;;;;;;;;;;;16.30;98.90;;;;;;5097840;28;19939;-53
2022/10/01 05:40:35;;;;;;;;;;;16.30;98.60;;;;;;5097624;28;20387;-53
2022/10/01 05:43:03;;;;;;;;;;;16.30;98.80;;;;;;5097452;28;19914;-53
2022/10/01 05:45:29;;;;;;;;;;;16.30;98.80;;;;;;5097549;28;19908;-54
2022/10/01 05:47:55;;;;;;;;;;;16.30;98.90;;;;;;5097546;28;19908;-53
2022/10/01 05:50:22;;;;;;;;;;;16.30;98.90;;;;;;5098775;28;19908;-54
2022/10/01 05:52:50;;;;;;;;;;;16.30;98.80;;;;;;5099578;28;19966;-52
2022/10/01 05:55:15;;;;;;;;;;;16.30;98.90;;;;;;5099130;28;19912;-54
2022/10/01 05:57:41;;;;;;;;;;;16.20;99.00;;;;;;5081154;28;19908;-53
2022/10/01 06:00:07;;;;;;;;;;;16.30;99.00;;;;;;5099345;28;20009;-54
2022/10/01 06:02:32;;;;;;;;;;;16.30;98.90;;;;;;5099404;28;19908;-55
2022/10/01 06:04:58;;;;;;;;;;;16.30;99.00;;;;;;5099155;28;20379;-54
2022/10/01 06:07:23;;;;;;;;;;;16.30;98.90;;;;;;5099748;28;19908;-54
2022/10/01 06:09:49;;;;;;;;;;;16.30;98.90;;;;;;5099375;28;19912;-54
2022/10/01 06:12:15;;;;;;;;;;;16.30;98.70;;;;;;5099337;28;19930;-54
2022/10/01 06:14:41;;;;;;;;;;;16.30;98.60;;;;;;5096110;28;19912;-54
2022/10/01 06:17:07;;;;;;;;;;;16.30;98.80;;;;;;5098071;28;19912;-52
2022/10/01 06:19:32;;;;;;;;;;;16.30;98.70;;;;;;5098736;28;20271;-54
2022/10/01 06:21:58;;;;;;;;;;;16.30;98.70;;;;;;5096943;28;19908;-54
2022/10/01 06:24:24;;;;;;;;;;;16.30;98.50;;;;;;5096735;28;20003;-54
2022/10/01 06:26:50;;;;;;;;;;;16.30;98.30;;;;;;5096597;28;19908;-55
2022/10/01 06:29:15;;;;;;;;;;;16.30;98.70;;;;;;5096680;28;19932;-52
2022/10/01 06:31:41;;;;;;;;;;;16.30;99.00;;;;;;5098319;28;20385;-53
2022/10/01 06:34:06;;;;;;;;;;;16.30;98.70;;;;;;5098893;28;19951;-52
2022/10/01 06:36:32;;;;;;;;;;;16.30;98.60;;;;;;5098965;28;19915;-52
2022/10/01 06:38:58;;;;;;;;;;;16.30;98.70;;;;;;5098427;28;19908;-53
2022/10/01 06:41:24;;;;;;;;;;;16.30;98.80;;;;;;5098708;28;20310;-53
2022/10/01 06:43:49;;;;;;;;;;;16.30;98.60;;;;;;5098461;28;19909;-54
2022/10/01 06:46:15;;;;;;;;;;;16.30;99.00;;;;;;5098740;28;19908;-53
2022/10/01 06:48:40;;;;;;;;;;;16.30;98.90;;;;;;5098435;28;19908;-54
2022/10/01 06:51:07;;;;;;;;;;;16.30;99.00;;;;;;5098615;28;19919;-53
2022/10/01 06:53:33;;;;;;;;;;;16.40;98.60;;;;;;5098454;28;19904;-54
2022/10/01 06:56:05;;;;;;;;;;;16.40;98.60;;;;;;5098215;28;19919;-53
2022/10/01 06:58:31;;;;;;;;;;;16.40;98.60;;;;;;5098074;28;20033;-54
2022/10/01 07:01:00;;;;;;;;;;;16.40;98.40;;;;;;5098572;28;19919;-53
2022/10/01 07:03:26;;;;;;;;;;;16.40;98.60;;;;;;5097728;28;19908;-54
2022/10/01 07:05:52;;;;;;;;;;;16.40;98.80;;;;;;5097333;28;19962;-54
2022/10/01 07:08:18;;;;;;;;;;;16.40;98.70;;;;;;5097950;28;20287;-53
2022/10/01 07:10:44;;;;;;;;;;;16.40;99.00;;;;;;5098248;28;19928;-53
2022/10/01 07:13:11;;;;;;;;;;;16.40;98.90;;;;;;5098259;28;19947;-53
2022/10/01 07:15:37;;;;;;;;;;;16.40;98.80;;;;;;5097651;28;19916;-54
2022/10/01 07:18:03;;;;;;;;;;;16.40;98.80;;;;;;5098170;28;19908;-54
2022/10/01 07:20:29;;;;;;;;;;;16.30;99.00;;;;;;5097983;28;20410;-54
2022/10/01 07:22:55;;;;;;;;;;;16.30;99.10;;;;;;5098156;28;20284;-54
2022/10/01 07:25:21;;;;;;;;;;;16.30;99.00;;;;;;5097984;28;19908;-53
2022/10/01 07:27:47;;;;;;;;;;;16.30;99.00;;;;;;5098066;28;20373;-54
2022/10/01 07:30:13;;;;;;;;;;;16.30;99.10;;;;;;5098245;28;19915;-54
2022/10/01 07:32:38;;;;;;;;;;;16.30;99.00;;;;;;5098104;28;19908;-52
2022/10/01 07:35:04;;;;;;;;;;;16.40;98.70;;;;;;5097934;28;19919;-50
2022/10/01 07:37:30;;;;;;;;;;;16.40;99.00;;;;;;5097972;28;20268;-54
2022/10/01 07:39:56;;;;;;;;;;;16.40;99.00;;;;;;5098040;28;19908;-54
2022/10/01 07:42:21;;;;;;;;;;;16.40;99.00;;;;;;5097666;28;19999;-54
2022/10/01 07:44:47;;;;;;;;;;;16.40;99.00;;;;;;5097625;28;19908;-54
2022/10/01 07:47:13;;;;;;;;;;;16.40;99.00;;;;;;5097647;28;19942;-54
2022/10/01 07:49:39;;;;;;;;;;;16.40;98.90;;;;;;5097652;28;19908;-54
2022/10/01 07:52:05;;;;;;;;;;;16.40;99.10;;;;;;5097900;28;19920;-53
2022/10/01 07:54:30;;;;;;;;;;;16.40;99.30;;;;;;5097714;28;19920;-54
2022/10/01 07:56:58;;;;;;;;;;;16.50;99.10;;;;;;5097683;28;19912;-52
2022/10/01 07:59:25;;;;;;;;;;;16.50;99.00;;;;;;5097767;28;19909;-54
2022/10/01 08:01:51;;;;;;;;;;;16.60;98.80;;;;;;5097881;28;19916;-54
2022/10/01 08:07:02;;;;;;;;;;;16.50;98.90;;;;;;5097381;28;19942;-53
2022/10/01 08:09:27;;;;;;;;;;;16.50;99.00;;;;;;5097758;28;19908;-54
2022/10/01 08:11:53;;;;;;;;;;;16.40;98.90;;;;;;5097708;28;19908;-54
2022/10/01 08:14:19;;;;;;;;;;;16.50;98.80;;;;;;5097619;28;19915;-53
2022/10/01 08:16:45;;;;;;;;;;;16.40;98.70;;;;;;5097435;28;19930;-54
2022/10/01 08:19:11;;;;;;;;;;;16.50;98.60;;;;;;5101321;28;19908;-53
2022/10/01 08:21:37;;;;;;;;;;;16.50;98.70;;;;;;5101537;28;19912;-53
2022/10/01 08:24:03;;;;;;;;;;;16.50;98.50;;;;;;5101392;28;20347;-53
2022/10/01 08:26:29;;;;;;;;;;;16.50;98.60;;;;;;5101255;28;19908;-54
2022/10/01 08:28:54;;;;;;;;;;;16.50;98.70;;;;;;5101289;28;20014;-54
2022/10/01 08:31:20;;;;;;;;;;;16.50;98.90;;;;;;5101333;28;19908;-54
2022/10/01 08:33:46;;;;;;;;;;;16.60;98.80;;;;;;5101366;28;20325;-54
2022/10/01 08:36:11;;;;;;;;;;;16.60;98.80;;;;;;5100988;28;19912;-54
2022/10/01 08:38:39;;;;;;;;;;;16.60;98.80;;;;;;5083394;28;19919;-53
2022/10/01 08:41:22;;;;;;;;;;;16.70;98.80;;;;;;5100907;28;19908;-52
2022/10/01 08:43:49;;;;;;;;;;;16.80;98.50;;;;;;5101076;28;19908;-54
2022/10/01 08:46:16;;;;;;;;;;;16.80;98.50;;;;;;5100998;28;19908;-54
2022/10/01 08:48:52;;;;;;;;;;;16.80;98.70;;;;;;5100444;28;19908;-54
2022/10/01 08:51:30;;;;;;;;;;;16.80;98.60;;;;;;5100608;28;19912;-53
2022/10/01 08:54:03;;;;;;;;;;;16.90;98.70;;;;;;5100888;28;19915;-54
2022/10/01 08:56:39;;;;;;;;;;;17.00;98.50;;;;;;5100041;28;20464;-52
2022/10/01 08:59:27;;;;;;;;;;;17.00;98.30;;;;;;5100562;28;20283;-52
2022/10/01 09:01:53;;;;;;;;;;;17.10;98.60;;;;;;5100161;28;19908;-54
2022/10/01 09:04:19;;;;;;;;;;;17.20;98.40;;;;;;5100474;28;19912;-54
2022/10/01 09:06:46;;;;;;;;;;;17.20;98.40;;;;;;5100287;28;19920;-53
2022/10/01 09:09:31;;;;;;;;;;;17.30;98.30;;;;;;5100676;28;19908;-54
2022/10/01 09:12:14;;;;;;;;;;;17.40;98.40;;;;;;5100015;28;19912;-54
2022/10/01 09:14:42;;;;;;;;;;;17.40;98.10;;;;;;5100202;28;19912;-54
2022/10/01 09:17:14;;;;;;;;;;;17.40;97.90;;;;;;5100047;28;19915;-53
2022/10/01 09:19:46;;;;;;;;;;;17.30;97.60;;;;;;5100205;28;19908;-53
2022/10/01 09:22:34;;;;;;;;;;;17.10;97.60;;;;;;5100244;28;19908;-53
2022/10/01 09:25:18;;;;;;;;;;;17.10;98.00;;;;;;5089026;28;19999;-54
2022/10/01 09:27:44;;;;;;;;;;;17.10;98.00;;;;;;5099708;28;19916;-53
2022/10/01 09:30:11;;;;;;;;;;;17.10;97.90;;;;;;5099377;28;19912;-54
2022/10/01 09:32:40;;;;;;;;;;;17.10;97.90;;;;;;5099668;28;19927;-52
2022/10/01 09:35:19;;;;;;;;;;;17.10;97.80;;;;;;5099837;28;19931;-52
2022/10/01 09:38:08;;;;;;;;;;;17.20;98.00;;;;;;5100025;28;20393;-53
2022/10/01 09:40:56;;;;;;;;;;;17.20;98.00;;;;;;5088757;28;20003;-52
2022/10/01 09:43:22;;;;;;;;;;;17.30;98.10;;;;;;5100354;28;19987;-55
2022/10/01 09:45:49;;;;;;;;;;;17.30;98.20;;;;;;5099910;28;19962;-54
2022/10/01 09:48:37;;;;;;;;;;;17.30;98.00;;;;;;5099916;28;19915;-54
2022/10/01 09:51:07;;;;;;;;;;;17.30;97.80;;;;;;5099695;28;20295;-53
2022/10/01 09:53:35;;;;;;;;;;;17.40;97.90;;;;;;5099666;28;19957;-53
2022/10/01 09:56:09;;;;;;;;;;;17.40;97.90;;;;;;5099737;28;19965;-54
2022/10/01 09:58:36;;;;;;;;;;;17.50;97.80;;;;;;5099869;28;19909;-53
2022/10/01 10:01:02;;;;;;;;;;;17.60;98.00;;;;;;5099639;28;19930;-54
2022/10/01 10:03:29;;;;;;;;;;;17.80;97.80;;;;;;5099207;28;20394;-53
2022/10/01 10:05:56;;;;;;;;;;;17.80;97.70;;;;;;5081128;28;19921;-53
2022/10/01 10:08:30;;;;;;;;;;;18.00;97.70;;;;;;5098815;28;19912;-53
2022/10/01 10:10:59;;;;;;;;;;;18.00;97.50;;;;;;5095737;28;19915;-53
2022/10/01 10:13:25;;;;;;;;;;;18.00;97.60;;;;;;5098063;28;19920;-53
2022/10/01 10:15:57;;;;;;;;;;;17.90;97.40;;;;;;5098760;28;19919;-54
2022/10/01 10:18:27;;;;;;;;;;;18.00;97.60;;;;;;5098367;28;19962;-54
2022/10/01 10:20:54;;;;;;;;;;;18.20;97.30;;;;;;5097307;28;19966;-54
2022/10/01 10:23:20;;;;;;;;;;;18.20;97.10;;;;;;5098594;28;19931;-52
2022/10/01 10:25:53;;;;;;;;;;;18.20;97.10;;;;;;5098797;28;19990;-53
2022/10/01 10:28:22;;;;;;;;;;;18.20;97.10;;;;;;5098438;28;20286;-53
2022/10/01 10:30:51;;;;;;;;;;;18.20;97.30;;;;;;5098823;28;19970;-54
2022/10/01 10:33:19;;;;;;;;;;;18.30;97.00;;;;;;5098682;28;19919;-53
2022/10/01 10:35:45;;;;;;;;;;;18.20;96.70;;;;;;5098545;28;19961;-53
2022/10/01 10:38:16;;;;;;;;;;;18.40;97.40;;;;;;5099114;28;20002;-54
2022/10/01 10:40:43;;;;;;;;;;;18.50;97.10;;;;;;5097519;28;19944;-53
2022/10/01 10:43:17;;;;;;;;;;;18.50;97.10;;;;;;5098979;28;19908;-53
2022/10/01 10:45:45;;;;;;;;;;;18.40;96.80;;;;;;5098436;28;19915;-54
2022/10/01 10:48:14;;;;;;;;;;;18.60;96.60;;;;;;5098756;28;19912;-52
2022/10/01 10:50:42;;;;;;;;;;;18.80;97.10;;;;;;5098573;28;19930;-53
2022/10/01 10:53:23;;;;;;;;;;;19.00;96.60;;;;;;5099019;28;19908;-52
2022/10/01 10:56:11;;;;;;;;;;;19.20;96.30;;;;;;5098389;28;19912;-54
2022/10/01 10:58:39;;;;;;;;;;;19.20;95.90;;;;;;5097236;28;19920;-53
2022/10/01 11:01:09;;;;;;;;;;;19.10;95.50;;;;;;5098337;28;19908;-52
2022/10/01 11:03:36;;;;;;;;;;;19.10;95.70;;;;;;5097854;28;19912;-53
2022/10/01 11:06:10;;;;;;;;;;;19.10;95.70;;;;;;5098091;28;20011;-53
2022/10/01 11:08:36;;;;;;;;;;;19.10;95.50;;;;;;5080145;28;20379;-53
2022/10/01 11:11:08;;;;;;;;;;;19.00;94.40;;;;;;5098198;28;20007;-53
2022/10/01 11:13:53;;;;;;;;;;;19.20;95.40;;;;;;5098664;28;19908;-52
2022/10/01 11:16:23;;;;;;;;;;;19.10;94.20;;;;;;5096328;28;19923;-51
2022/10/01 11:18:53;;;;;;;;;;;19.20;94.20;;;;;;5097762;28;20002;-53
2022/10/01 11:21:19;;;;;;;;;;;19.10;93.90;;;;;;5095997;28;20012;-53
2022/10/01 11:23:47;;;;;;;;;;;19.10;94.10;;;;;;5096129;28;19908;-53
2022/10/01 11:26:13;;;;;;;;;;;19.60;94.50;;;;;;5097965;28;19957;-54
2022/10/01 11:28:42;;;;;;;;;;;20.20;93.50;;;;;;5097465;28;20359;-53
2022/10/01 11:31:21;;;;;;;;;;;20.80;95.90;;;;;;5095073;28;19916;-53
2022/10/01 11:34:04;;;;;;;;;;;21.50;93.50;;;;;;5096266;28;19916;-54
2022/10/01 11:36:49;;;;;;;;;;;22.30;95.10;;;;;;5096916;28;19923;-54
2022/10/01 11:39:17;;;;;;;;;;;23.10;91.40;;;;;;5098135;28;19908;-53
2022/10/01 11:41:44;;;;;;;;;;;23.50;89.90;;;;;;5098243;28;19908;-53
2022/10/01 11:44:28;;;;;;;;;;;23.90;90.60;;;;;;5097947;28;19915;-53
2022/10/01 11:46:59;;;;;;;;;;;23.40;86.10;;;;;;5096895;28;19981;-54
2022/10/01 11:49:25;;;;;;;;;;;23.60;88.00;;;;;;5094319;28;19956;-53
2022/10/01 11:52:11;;;;;;;;;;;24.10;88.10;;;;;;5094820;28;20295;-53
2022/10/01 11:54:40;;;;;;;;;;;24.10;87.00;;;;;;5057292;28;19942;-53
2022/10/01 12:00:00;;;;;;;;;;;24.80;85.70;;;;;;5101018;28;19915;-54
2022/10/01 12:02:27;;;;;;;;;;;24.50;74.90;;;;;;5100880;28;19908;-54
2022/10/01 12:05:08;;;;;;;;;;;24.70;78.90;;;;;;5101157;28;19909;-53
2022/10/01 12:07:37;;;;;;;;;;;24.30;75.20;;;;;;5101814;28;19908;-54
2022/10/01 12:10:16;;;;;;;;;;;23.70;76.20;;;;;;5102086;28;19908;-54
2022/10/01 12:12:45;;;;;;;;;;;24.10;82.00;;;;;;5101616;28;19908;-54
2022/10/01 12:15:15;;;;;;;;;;;23.90;76.90;;;;;;5101937;28;19912;-54
2022/10/01 12:17:47;;;;;;;;;;;23.70;80.70;;;;;;5101225;28;19908;-53
2022/10/01 12:20:42;;;;;;;;;;;23.90;78.80;;;;;;5102000;28;19990;-54
2022/10/01 12:23:12;;;;;;;;;;;24.30;82.70;;;;;;5083830;28;19908;-54
2022/10/01 12:25:55;;;;;;;;;;;24.70;80.20;;;;;;5101811;28;19908;-54
2022/10/01 12:28:24;;;;;;;;;;;24.40;80.50;;;;;;5101624;28;19999;-52
2022/10/01 12:31:00;;;;;;;;;;;24.00;74.60;;;;;;5101751;28;19908;-53
2022/10/01 12:33:44;;;;;;;;;;;23.50;81.10;;;;;;5101685;28;19931;-54
2022/10/01 12:36:10;;;;;;;;;;;23.60;80.60;;;;;;5101336;28;19971;-53
2022/10/01 12:38:48;;;;;;;;;;;23.50;79.10;;;;;;5101625;28;19958;-52
2022/10/01 12:41:17;;;;;;;;;;;22.90;78.80;;;;;;5101113;28;19980;-53
2022/10/01 12:43:43;;;;;;;;;;;22.30;82.30;;;;;;5101264;28;20410;-52
2022/10/01 12:46:08;;;;;;;;;;;22.00;82.90;;;;;;5101863;28;19908;-53
2022/10/01 12:48:39;;;;;;;;;;;22.20;82.00;;;;;;5101407;28;19908;-54
2022/10/01 12:51:25;;;;;;;;;;;22.30;83.50;;;;;;5101176;28;20288;-54
2022/10/01 12:53:53;;;;;;;;;;;22.70;83.20;;;;;;5101138;28;19915;-53
2022/10/01 12:56:35;;;;;;;;;;;23.30;82.60;;;;;;5100874;28;19912;-51
2022/10/01 12:59:14;;;;;;;;;;;23.70;80.50;;;;;;5101198;28;19908;-53
2022/10/01 13:01:44;;;;;;;;;;;23.70;74.50;;;;;;5101437;28;19908;-53
2022/10/01 13:04:16;;;;;;;;;;;23.60;79.00;;;;;;5099612;28;19908;-53
2022/10/01 13:06:48;;;;;;;;;;;23.40;81.40;;;;;;5100572;28;19924;-52
2022/10/01 13:09:28;;;;;;;;;;;23.80;77.10;;;;;;5100859;28;20260;-53
2022/10/01 13:11:57;;;;;;;;;;;24.00;78.90;;;;;;5101290;28;19908;-53
2022/10/01 13:14:22;;;;;;;;;;;24.70;78.10;;;;;;5100708;28;19919;-52
2022/10/01 13:16:58;;;;;;;;;;;24.80;75.30;;;;;;5100883;28;19908;-54
2022/10/01 13:19:36;;;;;;;;;;;25.00;72.40;;;;;;5100729;28;19912;-53
2022/10/01 13:22:06;;;;;;;;;;;25.10;73.10;;;;;;5100789;28;19915;-52
2022/10/01 13:24:40;;;;;;;;;;;25.10;79.90;;;;;;5100701;28;20004;-52
2022/10/01 13:27:25;;;;;;;;;;;24.80;78.10;;;;;;5100961;28;19912;-52
2022/10/01 13:29:51;;;;;;;;;;;24.20;72.40;;;;;;5100605;28;19908;-53
2022/10/01 13:32:36;;;;;;;;;;;24.50;74.50;;;;;;5100181;28;19912;-53
2022/10/01 13:35:20;;;;;;;;;;;25.00;76.80;;;;;;5100428;28;20370;-53
2022/10/01 13:37:46;;;;;;;;;;;25.10;73.30;;;;;;5100063;28;19908;-53
2022/10/01 13:40:22;;;;;;;;;;;25.00;67.20;;;;;;5100663;28;19962;-51
2022/10/01 13:42:49;;;;;;;;;;;24.90;70.90;;;;;;5100356;28;19908;-53
2022/10/01 13:45:21;;;;;;;;;;;24.60;76.70;;;;;;5100392;28;19908;-53
2022/10/01 13:47:46;;;;;;;;;;;24.50;74.30;;;;;;5081875;28;20368;-53
2022/10/01 13:50:25;;;;;;;;;;;24.40;74.80;;;;;;5100086;28;19915;-53
2022/10/01 13:52:51;;;;;;;;;;;24.60;78.00;;;;;;5099967;28;19946;-53
2022/10/01 13:55:30;;;;;;;;;;;24.50;74.00;;;;;;5100087;28;20078;-53
2022/10/01 13:58:06;;;;;;;;;;;24.70;78.10;;;;;;5100122;28;20276;-53
2022/10/01 14:00:32;;;;;;;;;;;23.90;72.00;;;;;;5099791;28;19915;-52
2022/10/01 14:03:03;;;;;;;;;;;23.30;71.40;;;;;;5099940;28;19912;-53
2022/10/01 14:05:34;;;;;;;;;;;23.60;74.90;;;;;;5099640;28;19926;-53
2022/10/01 14:08:23;;;;;;;;;;;23.60;70.80;;;;;;5099644;28;19912;-52
2022/10/01 14:16:43;;;;;;;;;;;23.20;74.90;;;;;;5098930;28;19939;-52
2022/10/01 14:19:09;;;;;;;;;;;23.40;74.50;;;;;;5099374;28;19908;-51
2022/10/01 14:21:50;;;;;;;;;;;23.00;73.60;;;;;;5099112;28;20355;-53
2022/10/01 14:24:26;;;;;;;;;;;23.10;73.40;;;;;;5099882;28;19908;-51
2022/10/01 14:26:55;;;;;;;;;;;23.10;75.10;;;;;;5099304;28;19915;-52
2022/10/01 14:29:53;;;;;;;;;;;23.00;74.60;;;;;;5099494;28;19967;-52
2022/10/01 14:32:25;;;;;;;;;;;22.40;75.00;;;;;;5054190;28;19915;-53
2022/10/01 14:35:29;;;;;;;;;;;22.30;77.20;;;;;;5098952;28;19918;-53
2022/10/01 14:38:03;;;;;;;;;;;22.20;77.90;;;;;;5016781;28;19917;-53
2022/10/01 14:40:36;;;;;;;;;;;21.90;78.40;;;;;;5016700;28;19909;-52
2022/10/01 14:43:09;;;;;;;;;;;21.70;78.70;;;;;;5063347;28;20007;-48